createdAt,value
2022-11-29T00:01:23.406Z,4.10
2022-11-29T00:03:52.663Z,3.83
2022-11-29T00:06:22.264Z,3.70
2022-11-29T00:08:51.160Z,3.40
2022-11-29T00:11:35.888Z,3.60
2022-11-29T00:14:03.733Z,3.20
2022-11-29T00:16:31.681Z,2.63
2022-11-29T00:19:00.886Z,2.70
2022-11-29T00:21:28.674Z,4.80
2022-11-29T00:23:56.498Z,2.58
2022-11-29T00:26:24.431Z,2.40
2022-11-29T00:28:52.672Z,3.25
2022-11-29T00:31:23.237Z,2.33
2022-11-29T00:33:51.735Z,2.30
2022-11-29T00:36:21.431Z,2.90
2022-11-29T00:38:49.017Z,2.25
2022-11-29T00:41:16.770Z,2.90
2022-11-29T00:43:44.629Z,2.08
2022-11-29T00:46:12.645Z,2.30
2022-11-29T00:48:40.547Z,2.60
2022-11-29T00:51:08.792Z,1.83
2022-11-29T00:53:38.936Z,3.05
2022-11-29T00:56:07.626Z,1.33
2022-11-29T00:58:36.526Z,1.70
2022-11-29T01:01:04.317Z,2.10
2022-11-29T01:03:32.349Z,2.35
2022-11-29T01:06:03.905Z,1.60
2022-11-29T01:08:31.510Z,1.95
2022-11-29T01:11:06.256Z,2.65
2022-11-29T01:13:34.083Z,2.25
2022-11-29T01:16:01.901Z,2.50
2022-11-29T01:18:30.685Z,2.28
2022-11-29T01:21:00.204Z,2.55
2022-11-29T01:23:28.624Z,2.00
2022-11-29T01:26:01.545Z,3.22
2022-11-29T01:28:30.773Z,2.83
2022-11-29T01:30:58.745Z,4.20
2022-11-29T01:33:26.460Z,4.50
2022-11-29T01:35:55.564Z,4.15
2022-11-29T01:38:23.330Z,3.38
2022-11-29T01:40:59.622Z,4.57
2022-11-29T01:43:27.652Z,4.85
2022-11-29T01:45:56.875Z,4.35
2022-11-29T01:48:29.795Z,3.13
2022-11-29T01:51:01.971Z,3.85
2022-11-29T01:53:30.302Z,4.40
2022-11-29T01:56:05.530Z,6.13
2022-11-29T01:58:34.123Z,2.85
2022-11-29T02:01:03.182Z,6.30
2022-11-29T02:03:30.802Z,4.20
2022-11-29T02:05:58.481Z,3.20
2022-11-29T02:08:30.692Z,5.35
2022-11-29T02:11:14.072Z,4.35
2022-11-29T02:14:02.867Z,4.38
2022-11-29T02:16:38.693Z,6.78
2022-11-29T02:19:22.968Z,5.63
2022-11-29T02:21:54.906Z,5.75
2022-11-29T02:24:43.718Z,6.15
2022-11-29T02:27:26.664Z,5.47
2022-11-29T02:30:08.446Z,5.40
2022-11-29T02:33:02.171Z,4.93
2022-11-29T02:35:51.026Z,5.75
2022-11-29T02:38:31.649Z,6.25
2022-11-29T02:41:14.883Z,8.20
2022-11-29T02:44:23.259Z,7.07
2022-11-29T02:47:07.985Z,6.28
2022-11-29T02:49:55.082Z,7.32
2022-11-29T02:52:31.170Z,7.70
2022-11-29T02:55:06.016Z,7.40
2022-11-29T02:57:42.747Z,6.30
2022-11-29T03:00:14.786Z,5.65
2022-11-29T03:02:53.669Z,7.25
2022-11-29T03:05:30.147Z,8.10
2022-11-29T03:08:06.657Z,4.95
2022-11-29T03:10:42.508Z,4.68
2022-11-29T03:13:18.100Z,7.32
2022-11-29T03:15:54.229Z,5.35
2022-11-29T03:18:34.260Z,7.60
2022-11-29T03:21:10.791Z,8.65
2022-11-29T03:23:44.119Z,4.47
2022-11-29T03:26:15.155Z,4.85
2022-11-29T03:28:49.982Z,4.22
2022-11-29T03:31:25.279Z,4.90
2022-11-29T03:33:59.833Z,7.47
2022-11-29T03:36:39.890Z,4.22
2022-11-29T03:39:14.338Z,4.10
2022-11-29T03:41:47.668Z,5.40
2022-11-29T03:46:53.646Z,3.80
2022-11-29T03:49:27.101Z,3.75
2022-11-29T03:54:43.924Z,4.72
2022-11-29T03:57:13.734Z,5.03
2022-11-29T03:59:56.922Z,5.03
2022-11-29T04:03:02.997Z,4.15
2022-11-29T04:06:00.390Z,4.47
2022-11-29T04:08:49.222Z,5.70
2022-11-29T04:11:54.557Z,5.85
2022-11-29T04:14:32.483Z,3.17
2022-11-29T04:17:42.673Z,3.70
2022-11-29T04:20:29.035Z,2.97
2022-11-29T04:23:38.784Z,3.22
2022-11-29T04:26:44.642Z,2.63
2022-11-29T04:29:38.326Z,2.63
2022-11-29T04:32:22.373Z,3.00
2022-11-29T04:35:30.693Z,2.65
2022-11-29T04:38:31.703Z,5.05
2022-11-29T04:41:20.734Z,3.08
2022-11-29T04:44:02.545Z,2.75
2022-11-29T04:46:46.801Z,2.03
2022-11-29T04:49:49.203Z,3.78
2022-11-29T04:52:32.816Z,4.10
2022-11-29T04:55:09.071Z,3.05
2022-11-29T04:57:41.002Z,3.67
2022-11-29T05:00:11.987Z,2.15
2022-11-29T05:02:46.752Z,1.50
2022-11-29T05:05:24.558Z,2.20
2022-11-29T05:08:08.700Z,1.17
2022-11-29T05:10:43.772Z,1.38
2022-11-29T05:13:21.744Z,2.17
2022-11-29T05:16:09.014Z,4.10
2022-11-29T05:19:05.705Z,2.42
2022-11-29T05:21:48.607Z,2.00
2022-11-29T05:24:28.875Z,2.78
2022-11-29T05:27:02.816Z,2.83
2022-11-29T05:29:41.686Z,4.32
2022-11-29T05:32:26.900Z,2.33
2022-11-29T05:35:11.178Z,2.45
2022-11-29T05:37:47.719Z,2.75
2022-11-29T05:40:45.143Z,3.03
2022-11-29T05:43:46.399Z,4.35
2022-11-29T05:46:20.773Z,3.28
2022-11-29T05:48:59.497Z,4.47
2022-11-29T05:51:41.088Z,3.92
2022-11-29T05:54:18.712Z,4.07
2022-11-29T05:56:56.523Z,2.22
2022-11-29T05:59:28.595Z,5.22
2022-11-29T06:02:05.065Z,3.30
2022-11-29T06:04:50.749Z,3.47
2022-11-29T06:07:27.217Z,2.92
2022-11-29T06:10:02.052Z,2.65
2022-11-29T06:12:34.862Z,3.95
2022-11-29T06:15:38.222Z,4.10
2022-11-29T06:18:30.293Z,3.58
2022-11-29T06:21:13.761Z,2.85
2022-11-29T06:23:58.866Z,2.92
2022-11-29T06:26:46.062Z,4.70
2022-11-29T06:29:26.445Z,3.45
2022-11-29T06:32:03.281Z,3.65
2022-11-29T06:34:40.495Z,4.40
2022-11-29T06:37:17.800Z,4.28
2022-11-29T06:39:47.176Z,4.95
2022-11-29T06:42:14.795Z,6.07
2022-11-29T06:44:43.685Z,4.88
2022-11-29T06:47:19.628Z,5.55
2022-11-29T06:49:52.824Z,4.10
2022-11-29T06:52:32.064Z,4.50
2022-11-29T06:55:11.597Z,6.45
2022-11-29T06:57:52.531Z,5.85
2022-11-29T07:00:23.150Z,6.20
2022-11-29T07:03:15.908Z,5.53
2022-11-29T07:05:44.155Z,4.80
2022-11-29T07:08:15.656Z,6.57
2022-11-29T07:10:46.288Z,3.85
2022-11-29T07:13:14.533Z,4.28
2022-11-29T07:15:51.187Z,4.65
2022-11-29T07:18:26.880Z,3.95
2022-11-29T07:21:07.214Z,5.03
2022-11-29T07:23:38.755Z,7.50
2022-11-29T07:26:18.822Z,4.78
2022-11-29T07:29:07.798Z,3.47
2022-11-29T07:31:44.393Z,3.92
2022-11-29T07:34:19.696Z,5.57
2022-11-29T07:36:55.836Z,5.68
2022-11-29T07:39:35.228Z,8.38
2022-11-29T07:42:14.547Z,16.23
2022-11-29T07:44:52.878Z,12.13
2022-11-29T07:47:20.524Z,5.88
2022-11-29T07:49:48.205Z,7.63
2022-11-29T07:52:17.560Z,12.20
2022-11-29T07:54:45.572Z,11.75
2022-11-29T07:57:14.687Z,15.68
2022-11-29T07:59:42.547Z,13.80
2022-11-29T08:02:12.100Z,8.98
2022-11-29T08:04:43.190Z,12.00
2022-11-29T08:07:11.316Z,9.30
2022-11-29T08:09:38.914Z,11.25
2022-11-29T08:12:07.010Z,9.73
2022-11-29T08:14:35.937Z,9.63
2022-11-29T08:17:03.987Z,12.82
2022-11-29T08:19:31.607Z,13.88
2022-11-29T08:21:59.413Z,20.65
2022-11-29T08:24:27.221Z,31.38
2022-11-29T08:26:54.841Z,23.00
2022-11-29T08:29:22.459Z,14.55
2022-11-29T08:31:53.649Z,12.88
2022-11-29T08:34:21.658Z,21.02
2022-11-29T08:36:49.764Z,21.55
2022-11-29T08:39:17.756Z,25.92
2022-11-29T08:41:45.373Z,40.80
2022-11-29T08:44:13.037Z,43.78
2022-11-29T08:46:58.160Z,29.25
2022-11-29T08:49:27.149Z,24.85
2022-11-29T08:52:15.084Z,14.98
2022-11-29T08:54:41.721Z,12.23
2022-11-29T08:59:56.968Z,25.38
2022-11-29T09:02:24.587Z,22.77
2022-11-29T09:04:53.659Z,26.50
2022-11-29T09:07:21.390Z,25.83
2022-11-29T09:09:49.305Z,21.13
2022-11-29T09:12:16.964Z,20.45
2022-11-29T09:14:44.667Z,19.80
2022-11-29T09:17:12.386Z,23.52
2022-11-29T09:19:39.930Z,26.63
2022-11-29T09:22:09.112Z,21.38
2022-11-29T09:24:36.832Z,24.85
2022-11-29T09:27:04.474Z,21.52
2022-11-29T09:29:32.026Z,18.95
2022-11-29T09:32:00.366Z,20.30
2022-11-29T09:34:28.071Z,20.77
2022-11-29T09:36:55.797Z,20.42
2022-11-29T09:39:24.828Z,21.60
2022-11-29T09:42:20.401Z,20.63
2022-11-29T09:45:02.190Z,20.20
2022-11-29T09:48:02.175Z,18.73
2022-11-29T09:50:35.457Z,20.00
2022-11-29T09:53:20.796Z,18.42
2022-11-29T09:56:05.684Z,20.55
2022-11-29T09:58:43.551Z,19.83
2022-11-29T10:01:18.280Z,19.40
2022-11-29T10:03:51.728Z,23.02
2022-11-29T10:08:58.600Z,24.95
2022-11-29T10:11:32.468Z,29.48
2022-11-29T10:14:06.951Z,25.45
2022-11-29T10:16:45.072Z,25.88
2022-11-29T10:19:21.751Z,21.73
2022-11-29T10:21:58.722Z,20.27
2022-11-29T10:24:27.861Z,21.33
2022-11-29T10:26:57.354Z,16.35
2022-11-29T10:29:25.342Z,17.15
2022-11-29T10:31:57.357Z,17.30
2022-11-29T10:34:27.185Z,17.77
2022-11-29T10:36:59.428Z,20.75
2022-11-29T10:39:34.659Z,18.25
2022-11-29T10:42:06.445Z,22.38
2022-11-29T10:44:34.941Z,22.45
2022-11-29T10:47:10.713Z,25.45
2022-11-29T10:49:40.144Z,24.88
2022-11-29T10:52:20.202Z,26.67
2022-11-29T10:54:49.571Z,24.70
2022-11-29T10:57:20.428Z,27.05
2022-11-29T11:00:00.587Z,25.92
2022-11-29T11:02:28.841Z,25.15
2022-11-29T11:04:57.252Z,24.20
2022-11-29T11:07:28.325Z,23.80
2022-11-29T11:09:58.133Z,25.65
2022-11-29T11:12:31.439Z,26.05
2022-11-29T11:15:16.771Z,22.77
2022-11-29T11:17:57.768Z,24.13
2022-11-29T11:20:28.469Z,23.70
2022-11-29T11:22:59.725Z,27.08
2022-11-29T11:25:30.892Z,27.33
2022-11-29T11:28:15.247Z,27.42
2022-11-29T11:30:51.578Z,24.52
2022-11-29T11:33:22.656Z,26.73
2022-11-29T11:36:07.154Z,29.60
2022-11-29T11:38:35.935Z,26.35
2022-11-29T11:41:17.010Z,25.42
2022-11-29T11:43:51.668Z,26.10
2022-11-29T11:46:19.728Z,26.52
2022-11-29T11:48:48.318Z,27.80
2022-11-29T11:51:25.461Z,26.15
2022-11-29T11:53:56.783Z,27.00
2022-11-29T11:56:27.716Z,25.85
2022-11-29T11:58:58.890Z,25.45
2022-11-29T12:01:30.663Z,23.95
2022-11-29T12:04:05.101Z,26.88
2022-11-29T12:06:40.454Z,24.20
2022-11-29T12:09:18.500Z,22.95
2022-11-29T12:11:55.125Z,27.15
2022-11-29T12:14:35.046Z,25.55
2022-11-29T12:17:13.273Z,25.23
2022-11-29T12:20:10.939Z,23.98
2022-11-29T12:22:46.711Z,25.58
2022-11-29T12:25:22.374Z,28.83
2022-11-29T12:27:50.650Z,27.67
2022-11-29T12:30:20.673Z,22.33
2022-11-29T12:33:13.737Z,29.08
2022-11-29T12:36:01.386Z,21.57
2022-11-29T12:39:08.094Z,22.23
2022-11-29T12:41:51.001Z,26.38
2022-11-29T12:44:30.740Z,26.10
2022-11-29T12:47:34.600Z,25.02
2022-11-29T12:50:05.907Z,25.05
2022-11-29T12:52:41.628Z,27.55
2022-11-29T12:55:19.124Z,28.63
2022-11-29T12:57:55.264Z,26.80
2022-11-29T13:00:24.224Z,29.10
2022-11-29T13:03:06.442Z,28.20
2022-11-29T13:05:50.506Z,24.73
2022-11-29T13:08:38.467Z,25.80
2022-11-29T13:11:17.168Z,29.70
2022-11-29T13:13:47.265Z,27.80
2022-11-29T13:16:31.409Z,25.95
2022-11-29T13:19:06.930Z,25.00
2022-11-29T13:21:41.240Z,27.48
2022-11-29T13:24:13.745Z,28.15
2022-11-29T13:26:42.786Z,24.65
2022-11-29T13:29:15.531Z,21.73
2022-11-29T13:31:44.240Z,23.65
2022-11-29T13:34:18.628Z,25.77
2022-11-29T13:36:58.951Z,26.95
2022-11-29T13:39:41.010Z,21.13
2022-11-29T13:42:14.539Z,20.63
2022-11-29T13:44:47.842Z,21.77
2022-11-29T13:47:17.305Z,21.48
2022-11-29T13:49:55.028Z,22.85
2022-11-29T13:52:32.120Z,21.80
2022-11-29T13:55:34.134Z,19.10
2022-11-29T13:58:16.907Z,21.00
2022-11-29T14:00:51.556Z,20.73
2022-11-29T14:03:33.422Z,23.80
2022-11-29T14:06:18.520Z,23.70
2022-11-29T14:09:18.517Z,23.25
2022-11-29T14:11:50.605Z,22.40
2022-11-29T14:14:25.979Z,23.13
2022-11-29T14:16:59.156Z,30.70
2022-11-29T14:19:33.006Z,30.85
2022-11-29T14:22:23.207Z,34.20
2022-11-29T14:25:49.264Z,39.30
2022-11-29T14:28:30.071Z,41.70
2022-11-29T14:31:01.311Z,32.95
2022-11-29T14:33:59.269Z,29.45
2022-11-29T14:36:40.826Z,27.48
2022-11-29T14:39:30.985Z,30.13
2022-11-29T14:42:14.411Z,28.58
2022-11-29T14:44:49.440Z,30.90
2022-11-29T14:47:24.459Z,31.58
2022-11-29T14:49:55.159Z,26.92
2022-11-29T14:52:29.288Z,31.35
2022-11-29T14:55:05.770Z,28.73
2022-11-29T14:58:05.786Z,27.95
2022-11-29T15:00:43.156Z,24.40
2022-11-29T15:03:13.831Z,25.10
2022-11-29T15:05:44.903Z,25.13
2022-11-29T15:08:18.884Z,28.13
2022-11-29T15:10:51.565Z,27.27
2022-11-29T15:13:26.906Z,26.98
2022-11-29T15:16:13.831Z,26.33
2022-11-29T15:19:02.326Z,25.15
2022-11-29T15:21:35.690Z,24.60
2022-11-29T15:24:11.486Z,23.35
2022-11-29T15:26:55.729Z,30.02
2022-11-29T15:29:24.076Z,24.05
2022-11-29T15:31:55.057Z,20.83
2022-11-29T15:34:30.490Z,25.48
2022-11-29T15:36:58.738Z,24.02
2022-11-29T15:39:28.990Z,32.90
2022-11-29T15:42:02.871Z,31.90
2022-11-29T15:44:32.554Z,22.00
2022-11-29T15:47:16.899Z,21.30
2022-11-29T15:49:44.537Z,23.92
2022-11-29T15:52:20.348Z,23.98
2022-11-29T15:54:53.112Z,27.35
2022-11-29T15:57:27.386Z,24.38
2022-11-29T15:59:57.923Z,24.95
2022-11-29T16:02:28.630Z,25.83
2022-11-29T16:04:58.909Z,26.67
2022-11-29T16:07:32.195Z,23.25
2022-11-29T16:10:04.798Z,26.65
2022-11-29T16:12:38.296Z,22.85
2022-11-29T16:15:23.107Z,25.15
2022-11-29T16:17:51.243Z,22.63
2022-11-29T16:20:26.466Z,25.63
2022-11-29T16:23:05.488Z,22.33
2022-11-29T16:25:37.525Z,21.63
2022-11-29T16:28:13.453Z,23.85
2022-11-29T16:30:43.024Z,24.75
2022-11-29T16:33:21.182Z,27.10
2022-11-29T16:35:49.317Z,23.75
2022-11-29T16:38:20.888Z,22.38
2022-11-29T16:41:02.965Z,22.10
2022-11-29T16:43:55.892Z,25.40
2022-11-29T16:46:32.903Z,25.15
2022-11-29T16:49:03.590Z,25.70
2022-11-29T16:51:39.638Z,30.80
2022-11-29T16:54:22.358Z,31.10
2022-11-29T16:56:51.017Z,31.63
2022-11-29T16:59:27.459Z,25.70
2022-11-29T17:01:56.791Z,25.40
2022-11-29T17:04:25.268Z,26.90
2022-11-29T17:06:54.168Z,26.85
2022-11-29T17:09:25.337Z,26.90
2022-11-29T17:11:53.353Z,25.15
2022-11-29T17:14:22.318Z,22.60
2022-11-29T17:16:50.406Z,23.77
2022-11-29T17:19:19.697Z,25.75
2022-11-29T17:21:47.483Z,25.55
2022-11-29T17:24:16.556Z,25.52
2022-11-29T17:26:45.541Z,25.73
2022-11-29T17:29:15.107Z,24.92
2022-11-29T17:31:45.846Z,26.48
2022-11-29T17:34:14.041Z,24.77
2022-11-29T17:36:41.961Z,25.02
2022-11-29T17:39:09.872Z,22.30
2022-11-29T17:41:37.721Z,27.55
2022-11-29T17:44:05.727Z,25.27
2022-11-29T17:46:34.845Z,27.38
2022-11-29T17:49:06.549Z,36.28
2022-11-29T17:51:53.749Z,36.75
2022-11-29T17:54:21.887Z,30.33
2022-11-29T17:56:49.549Z,23.67
2022-11-29T17:59:17.377Z,22.02
2022-11-29T18:01:46.878Z,26.30
2022-11-29T18:04:16.357Z,28.45
2022-11-29T18:06:49.312Z,25.05
2022-11-29T18:09:17.798Z,24.60
2022-11-29T18:11:49.028Z,27.63
2022-11-29T18:14:19.421Z,27.77
2022-11-29T18:16:47.218Z,26.50
2022-11-29T18:19:18.795Z,27.98
2022-11-29T18:21:46.533Z,27.98
2022-11-29T18:24:14.262Z,29.45
2022-11-29T18:26:42.318Z,34.50
2022-11-29T18:29:10.503Z,36.55
2022-11-29T18:31:40.735Z,28.52
2022-11-29T18:34:10.585Z,34.50
2022-11-29T18:36:42.771Z,33.88
2022-11-29T18:39:13.853Z,32.78
2022-11-29T18:41:42.926Z,31.92
2022-11-29T18:44:13.371Z,32.63
2022-11-29T18:46:43.032Z,33.97
2022-11-29T18:49:12.403Z,28.45
2022-11-29T18:51:42.845Z,29.15
2022-11-29T18:54:10.867Z,45.05
2022-11-29T18:56:39.296Z,37.15
2022-11-29T18:59:10.808Z,34.08
2022-11-29T19:01:42.371Z,32.42
2022-11-29T19:04:12.933Z,33.85
2022-11-29T19:06:42.518Z,31.38
2022-11-29T19:09:14.044Z,35.03
2022-11-29T19:11:41.934Z,36.60
2022-11-29T19:14:12.672Z,31.42
2022-11-29T19:16:42.007Z,31.90
2022-11-29T19:19:09.796Z,33.42
2022-11-29T19:21:39.496Z,32.70
2022-11-29T19:24:14.735Z,37.15
2022-11-29T19:26:45.175Z,34.25
2022-11-29T19:29:13.322Z,38.05
2022-11-29T19:31:40.997Z,34.55
2022-11-29T19:34:08.936Z,32.42
2022-11-29T19:36:42.508Z,34.58
2022-11-29T19:39:13.173Z,34.28
2022-11-29T19:41:42.932Z,35.50
2022-11-29T19:44:11.262Z,37.70
2022-11-29T19:46:41.139Z,34.92
2022-11-29T19:49:09.964Z,33.40
2022-11-29T19:51:37.788Z,40.05
2022-11-29T19:54:07.172Z,34.60
2022-11-29T19:56:36.757Z,33.15
2022-11-29T19:59:04.660Z,37.13
2022-11-29T20:01:40.296Z,32.80
2022-11-29T20:04:10.147Z,29.30
2022-11-29T20:06:37.991Z,29.80
2022-11-29T20:09:06.308Z,30.33
2022-11-29T20:11:34.158Z,27.13
2022-11-29T20:14:05.330Z,28.75
2022-11-29T20:16:34.388Z,27.50
2022-11-29T20:19:02.566Z,28.75
2022-11-29T20:21:32.231Z,27.45
2022-11-29T20:24:01.917Z,27.45
2022-11-29T20:26:31.319Z,27.25
2022-11-29T20:28:59.911Z,29.65
2022-11-29T20:31:29.512Z,25.50
2022-11-29T20:33:58.244Z,29.52
2022-11-29T20:36:44.473Z,29.40
2022-11-29T20:39:22.091Z,31.23
2022-11-29T20:42:00.405Z,33.50
2022-11-29T20:44:37.282Z,30.73
2022-11-29T20:47:14.935Z,29.83
2022-11-29T20:49:42.851Z,32.10
2022-11-29T20:52:22.762Z,27.60
2022-11-29T20:54:50.395Z,29.60
2022-11-29T20:57:17.959Z,27.40
2022-11-29T20:59:45.929Z,29.55
2022-11-29T21:02:15.109Z,27.05
2022-11-29T21:04:42.694Z,30.48
2022-11-29T21:07:10.442Z,22.42
2022-11-29T21:09:38.046Z,26.65
2022-11-29T21:12:11.781Z,20.55
2022-11-29T21:17:07.624Z,19.27
2022-11-29T21:19:37.359Z,21.17
2022-11-29T21:22:13.670Z,25.70
2022-11-29T21:24:52.608Z,20.00
2022-11-29T21:27:26.745Z,21.73
2022-11-29T21:29:55.096Z,21.00
2022-11-29T21:32:25.244Z,22.10
2022-11-29T21:34:54.594Z,62.83
2022-11-29T21:37:27.467Z,29.75
2022-11-29T21:39:57.055Z,22.25
2022-11-29T21:42:24.707Z,21.92
2022-11-29T21:44:53.513Z,24.92
2022-11-29T21:47:21.094Z,26.25
2022-11-29T21:49:48.767Z,21.77
2022-11-29T21:52:22.170Z,22.67
2022-11-29T21:54:50.790Z,19.95
2022-11-29T21:57:18.453Z,20.80
2022-11-29T21:59:46.063Z,18.60
2022-11-29T22:02:13.761Z,21.70
2022-11-29T22:04:41.579Z,18.17
2022-11-29T22:07:09.201Z,19.50
2022-11-29T22:09:38.174Z,23.25
2022-11-29T22:12:25.787Z,22.40
2022-11-29T22:14:53.709Z,20.52
2022-11-29T22:17:21.346Z,19.80
2022-11-29T22:19:48.955Z,18.88
2022-11-29T22:22:16.595Z,20.42
2022-11-29T22:24:45.986Z,19.85
2022-11-29T22:27:13.799Z,20.80
2022-11-29T22:29:41.439Z,21.27
2022-11-29T22:32:09.032Z,20.33
2022-11-29T22:34:36.636Z,24.08
2022-11-29T22:37:04.314Z,20.88
2022-11-29T22:39:31.997Z,20.80
2022-11-29T22:42:00.978Z,23.80
2022-11-29T22:44:28.634Z,19.45
2022-11-29T22:46:56.400Z,17.30
2022-11-29T22:49:24.052Z,17.73
2022-11-29T22:51:52.187Z,22.45
2022-11-29T22:54:20.188Z,23.05
2022-11-29T22:56:48.005Z,20.67
2022-11-29T22:59:16.935Z,23.60
2022-11-29T23:01:44.809Z,22.50
2022-11-29T23:04:13.467Z,19.88
2022-11-29T23:06:42.734Z,18.45
2022-11-29T23:09:15.119Z,19.13
2022-11-29T23:11:43.328Z,19.30
2022-11-29T23:14:11.095Z,17.23
2022-11-29T23:16:40.129Z,17.90
2022-11-29T23:19:07.926Z,15.50
2022-11-29T23:21:37.729Z,19.30
2022-11-29T23:24:06.029Z,17.50
2022-11-29T23:26:37.457Z,15.90
2022-11-29T23:29:05.730Z,16.25
2022-11-29T23:31:34.462Z,19.75
2022-11-29T23:34:03.775Z,16.27
2022-11-29T23:36:31.492Z,21.33
2022-11-29T23:38:59.221Z,18.48
2022-11-29T23:41:27.060Z,17.40
2022-11-29T23:43:54.763Z,17.25
2022-11-29T23:46:24.259Z,16.00
2022-11-29T23:48:52.636Z,16.65
2022-11-29T23:51:22.395Z,17.48
2022-11-29T23:53:52.119Z,15.57
2022-11-29T23:56:20.536Z,16.83
2022-11-29T23:58:48.523Z,19.33
